Time;durP1;ratioP1;P1;durP2;ratioP2;P2;SDS_P1;SDS_P2;PMS_P1;PMS_P2;Temp;Humidity;BMP_temperature;BMP_pressure;BME280_temperature;BME280_humidity;BME280_pressure;Samples;Min_cycle;Max_cycle;Signal;HPM_P1;HPM_P2
2022/08/04 00:02:19;;;;;;;7.50;4.13;;;;;;;;;;4976264;28;20042;-61
2022/08/04 00:04:56;;;;;;;7.43;4.63;;;;;;;;;;4976801;28;20046;-62
2022/08/04 00:07:41;;;;;;;7.68;4.47;;;;;;;;;;4977571;28;20046;-62
2022/08/04 00:10:08;;;;;;;8.93;4.60;;;;;;;;;;4977928;28;20049;-62
2022/08/04 00:12:36;;;;;;;6.45;4.32;;;;;;;;;;4976336;28;20042;-62
2022/08/04 00:15:04;;;;;;;10.15;4.72;;;;;;;;;;4978411;28;20058;-62
2022/08/04 00:17:51;;;;;;;10.20;3.90;;;;;;;;;;4973607;28;20046;-62
2022/08/04 00:20:19;;;;;;;8.10;4.35;;;;;;;;;;4975520;28;20125;-62
2022/08/04 00:22:46;;;;;;;6.55;3.85;;;;;;;;;;4975521;28;20042;-63
2022/08/04 00:25:13;;;;;;;11.68;4.70;;;;;;;;;;4975646;28;20074;-63
2022/08/04 00:27:40;;;;;;;13.13;4.45;;;;;;;;;;4977165;28;20087;-62
2022/08/04 00:30:07;;;;;;;7.80;4.07;;;;;;;;;;4975539;28;20088;-63
2022/08/04 00:32:34;;;;;;;15.85;4.45;;;;;;;;;;4976423;28;20080;-61
2022/08/04 00:35:00;;;;;;;11.90;5.00;;;;;;;;;;4974995;28;20429;-61
2022/08/04 00:37:27;;;;;;;7.22;4.40;;;;;;;;;;4990379;28;20050;-61
2022/08/04 00:39:55;;;;;;;13.43;4.40;;;;;;;;;;4980501;28;20049;-61
2022/08/04 00:42:34;;;;;;;11.88;4.60;;;;;;;;;;4976282;28;20666;-61
2022/08/04 00:45:14;;;;;;;14.05;4.32;;;;;;;;;;4975709;28;20034;-62
2022/08/04 00:47:59;;;;;;;8.60;4.07;;;;;;;;;;4973428;28;20050;-61
2022/08/04 00:50:45;;;;;;;12.20;4.78;;;;;;;;;;4975664;28;20073;-62
2022/08/04 00:53:14;;;;;;;12.18;4.53;;;;;;;;;;4977009;28;20039;-61
2022/08/04 00:55:59;;;;;;;15.20;4.18;;;;;;;;;;4976476;28;20587;-62
2022/08/04 00:58:38;;;;;;;12.60;4.30;;;;;;;;;;4976403;28;20108;-62
2022/08/04 01:01:22;;;;;;;11.10;3.90;;;;;;;;;;4977854;28;20547;-62
2022/08/04 01:03:48;;;;;;;8.80;3.90;;;;;;;;;;4974859;28;20042;-62
2022/08/04 01:06:24;;;;;;;5.63;3.17;;;;;;;;;;4977146;28;20709;-61
2022/08/04 01:09:00;;;;;;;9.68;4.00;;;;;;;;;;4974471;28;20129;-61
2022/08/04 01:11:35;;;;;;;14.20;3.60;;;;;;;;;;4976165;28;20132;-61
2022/08/04 01:14:08;;;;;;;7.97;3.70;;;;;;;;;;4975581;28;20053;-61
2022/08/04 01:16:34;;;;;;;;;;;;;;;;;;4977711;28;20510;-60
2022/08/04 01:19:13;;;;;;;9.07;3.65;;;;;;;;;;4976197;28;19930;-61
2022/08/04 01:21:43;;;;;;;12.70;3.85;;;;;;;;;;4976693;28;20051;-61
2022/08/04 01:24:30;;;;;;;8.85;3.63;;;;;;;;;;4976482;28;20258;-61
2022/08/04 01:27:03;;;;;;;7.80;3.10;;;;;;;;;;4974525;28;20046;-60
2022/08/04 01:29:45;;;;;;;7.53;3.60;;;;;;;;;;4975618;28;20034;-61
2022/08/04 01:32:21;;;;;;;9.10;3.17;;;;;;;;;;4977515;28;20050;-61
2022/08/04 01:34:51;;;;;;;15.55;3.55;;;;;;;;;;4972168;28;20086;-61
2022/08/04 01:37:37;;;;;;;6.78;3.38;;;;;;;;;;4991244;28;20046;-61
2022/08/04 01:40:06;;;;;;;8.43;3.70;;;;;;;;;;5009051;28;20037;-60
2022/08/04 01:42:33;;;;;;;10.15;3.38;;;;;;;;;;4980058;28;20312;-60
2022/08/04 01:45:05;;;;;;;6.05;3.38;;;;;;;;;;4979668;28;20516;-61
2022/08/04 01:47:34;;;;;;;9.60;3.42;;;;;;;;;;4979230;28;20051;-60
2022/08/04 01:50:04;;;;;;;7.35;3.10;;;;;;;;;;4980071;28;20081;-60
2022/08/04 01:52:31;;;;;;;6.40;2.47;;;;;;;;;;4978466;28;20046;-60
2022/08/04 01:54:59;;;;;;;6.80;2.80;;;;;;;;;;4978000;28;20448;-61
2022/08/04 01:57:26;;;;;;;7.20;3.20;;;;;;;;;;4978355;28;20126;-59
2022/08/04 01:59:52;;;;;;;13.57;3.63;;;;;;;;;;4979411;28;20042;-59
2022/08/04 02:02:23;;;;;;;8.98;2.75;;;;;;;;;;4977458;28;20042;-60
2022/08/04 02:04:49;;;;;;;6.32;3.20;;;;;;;;;;4978653;28;20120;-60
2022/08/04 02:07:28;;;;;;;8.38;3.20;;;;;;;;;;4979533;28;20047;-60
2022/08/04 02:09:58;;;;;;;8.57;3.38;;;;;;;;;;4979957;28;20513;-61
2022/08/04 02:12:25;;;;;;;11.30;3.55;;;;;;;;;;4980060;28;20109;-61
2022/08/04 02:15:03;;;;;;;7.65;3.05;;;;;;;;;;4974893;28;20169;-60
2022/08/04 02:17:32;;;;;;;6.65;3.05;;;;;;;;;;4980926;23;20148;-61
2022/08/04 02:19:58;;;;;;;8.55;3.45;;;;;;;;;;5030004;28;20498;-63
2022/08/04 02:22:26;;;;;;;7.60;3.80;;;;;;;;;;5032772;28;20040;-61
2022/08/04 02:25:13;;;;;;;9.02;3.40;;;;;;;;;;5029122;28;20056;-61
2022/08/04 02:27:58;;;;;;;9.93;3.75;;;;;;;;;;5032238;28;20048;-61
2022/08/04 02:30:28;;;;;;;9.45;3.72;;;;;;;;;;5017978;28;20047;-63
2022/08/04 02:32:57;;;;;;;11.38;3.70;;;;;;;;;;5031229;28;20033;-64
2022/08/04 02:35:27;;;;;;;14.25;3.58;;;;;;;;;;5018253;28;20086;-62
2022/08/04 02:38:12;;;;;;;12.07;3.92;;;;;;;;;;5031426;28;20053;-62
2022/08/04 02:40:40;;;;;;;9.65;3.65;;;;;;;;;;5030243;28;20487;-61
2022/08/04 02:43:08;;;;;;;11.75;3.88;;;;;;;;;;5030988;28;20040;-64
2022/08/04 02:45:41;;;;;;;7.47;3.78;;;;;;;;;;5030874;28;20120;-62
2022/08/04 02:48:08;;;;;;;7.18;3.58;;;;;;;;;;5020128;28;20033;-62
2022/08/04 02:50:35;;;;;;;9.57;3.35;;;;;;;;;;5029578;28;20041;-62
2022/08/04 02:53:03;;;;;;;9.82;3.40;;;;;;;;;;5031730;28;20040;-62
2022/08/04 02:55:29;;;;;;;6.15;3.40;;;;;;;;;;5030291;28;20248;-63
2022/08/04 02:57:58;;;;;;;7.32;3.67;;;;;;;;;;5032367;28;20052;-62
2022/08/04 03:00:25;;;;;;;12.02;3.83;;;;;;;;;;5035399;28;20060;-64
2022/08/04 03:03:10;;;;;;;9.48;3.63;;;;;;;;;;5032066;28;20048;-61
2022/08/04 03:05:53;;;;;;;11.40;4.32;;;;;;;;;;5031241;28;20102;-61
2022/08/04 03:08:19;;;;;;;8.73;3.85;;;;;;;;;;5033265;28;20037;-58
2022/08/04 03:10:49;;;;;;;7.55;3.60;;;;;;;;;;5031745;28;20036;-62
2022/08/04 03:13:27;;;;;;;8.02;3.10;;;;;;;;;;5030514;28;20037;-60
2022/08/04 03:16:09;;;;;;;7.40;3.58;;;;;;;;;;5030293;28;20037;-62
2022/08/04 03:18:54;;;;;;;14.57;4.20;;;;;;;;;;5028477;28;20146;-64
2022/08/04 03:21:23;;;;;;;9.65;3.83;;;;;;;;;;5029502;28;20522;-61
2022/08/04 03:23:53;;;;;;;6.53;3.50;;;;;;;;;;5030006;28;20043;-63
2022/08/04 03:26:53;;;;;;;6.97;3.83;;;;;;;;;;5033773;28;20072;-62
2022/08/04 03:29:38;;;;;;;7.20;3.90;;;;;;;;;;5009035;28;20041;-64
2022/08/04 03:32:14;;;;;;;12.32;3.55;;;;;;;;;;5011107;28;20960;-64
2022/08/04 03:34:55;;;;;;;13.63;4.15;;;;;;;;;;5009554;28;20067;-63
2022/08/04 03:37:44;;;;;;;12.73;4.00;;;;;;;;;;5028701;28;20415;-64
2022/08/04 03:40:22;;;;;;;9.25;4.55;;;;;;;;;;5030529;28;20049;-62
2022/08/04 03:42:57;;;;;;;8.30;4.00;;;;;;;;;;5030808;28;20051;-64
2022/08/04 03:45:42;;;;;;;11.65;4.40;;;;;;;;;;5030653;28;20033;-62
2022/08/04 03:48:27;;;;;;;9.02;4.15;;;;;;;;;;5031558;28;20419;-62
2022/08/04 03:53:57;;;;;;;9.52;4.18;;;;;;;;;;5031462;28;20079;-62
2022/08/04 03:56:46;;;;;;;9.63;4.35;;;;;;;;;;5030912;28;21873;-60
2022/08/04 03:59:27;;;;;;;11.73;4.18;;;;;;;;;;5013707;28;20049;-62
2022/08/04 04:01:59;;;;;;;12.35;4.05;;;;;;;;;;5030006;28;20053;-58
2022/08/04 04:04:26;;;;;;;8.18;4.13;;;;;;;;;;5030023;28;20044;-60
2022/08/04 04:07:20;;;;;;;7.60;4.18;;;;;;;;;;5030938;28;20037;-62
2022/08/04 04:09:52;;;;;;;6.97;3.92;;;;;;;;;;4986029;28;20040;-62
2022/08/04 04:12:28;;;;;;;8.73;4.00;;;;;;;;;;5027936;28;20045;-61
2022/08/04 04:15:04;;;;;;;7.47;4.15;;;;;;;;;;5028574;28;20545;-60
2022/08/04 04:17:46;;;;;;;7.45;3.78;;;;;;;;;;5028649;28;20056;-60
2022/08/04 04:20:32;;;;;;;9.98;4.38;;;;;;;;;;5030645;28;20060;-61
2022/08/04 04:23:08;;;;;;;12.20;4.28;;;;;;;;;;4996777;28;20037;-60
2022/08/04 04:25:41;;;;;;;10.43;3.95;;;;;;;;;;5029106;28;20052;-60
2022/08/04 04:28:26;;;;;;;12.50;4.32;;;;;;;;;;5031545;28;20127;-60
2022/08/04 04:30:58;;;;;;;8.52;4.10;;;;;;;;;;5029632;28;20052;-61
2022/08/04 04:33:43;;;;;;;10.90;4.90;;;;;;;;;;5030608;28;20148;-60
2022/08/04 04:36:19;;;;;;;10.02;4.50;;;;;;;;;;5029879;28;20048;-60
2022/08/04 04:39:03;;;;;;;8.23;3.88;;;;;;;;;;5029370;28;20075;-60
2022/08/04 04:41:39;;;;;;;12.48;4.85;;;;;;;;;;5029221;28;20133;-60
2022/08/04 04:44:25;;;;;;;8.80;4.13;;;;;;;;;;5029334;28;20042;-60
2022/08/04 04:46:54;;;;;;;10.50;4.43;;;;;;;;;;5030584;28;20068;-60
2022/08/04 04:49:25;;;;;;;10.13;4.03;;;;;;;;;;5029814;28;20047;-60
2022/08/04 04:52:12;;;;;;;8.05;3.70;;;;;;;;;;5030547;28;20029;-60
2022/08/04 04:55:05;;;;;;;8.38;3.90;;;;;;;;;;5028696;28;20071;-60
2022/08/04 04:57:35;;;;;;;10.63;4.75;;;;;;;;;;5007979;28;20081;-60
2022/08/04 05:00:05;;;;;;;6.30;3.92;;;;;;;;;;5031388;28;20098;-59
2022/08/04 05:02:47;;;;;;;7.40;3.78;;;;;;;;;;5027966;28;20051;-59
2022/08/04 05:05:23;;;;;;;10.00;4.13;;;;;;;;;;5030167;28;20148;-59
2022/08/04 05:07:51;;;;;;;8.45;4.18;;;;;;;;;;5029605;28;20042;-60
2022/08/04 05:10:21;;;;;;;7.22;3.97;;;;;;;;;;5029392;28;20052;-60
2022/08/04 05:12:51;;;;;;;12.07;4.38;;;;;;;;;;5030341;28;20040;-60
2022/08/04 05:15:19;;;;;;;9.02;4.50;;;;;;;;;;5033360;28;20045;-60
2022/08/04 05:17:53;;;;;;;8.95;4.35;;;;;;;;;;5032423;28;20064;-60
2022/08/04 05:20:22;;;;;;;10.23;4.40;;;;;;;;;;5032178;28;20071;-60
2022/08/04 05:22:49;;;;;;;8.85;4.47;;;;;;;;;;5033820;28;20040;-60
2022/08/04 05:25:18;;;;;;;8.80;4.32;;;;;;;;;;5032275;28;20045;-59
2022/08/04 05:27:56;;;;;;;7.38;4.35;;;;;;;;;;5033310;28;20033;-60
2022/08/04 05:30:24;;;;;;;7.53;4.80;;;;;;;;;;5033762;28;20038;-59
2022/08/04 05:33:03;;;;;;;7.78;4.45;;;;;;;;;;5033722;28;20100;-60
2022/08/04 05:35:55;;;;;;;9.30;4.25;;;;;;;;;;5032904;28;20049;-59
2022/08/04 05:38:23;;;;;;;11.82;4.53;;;;;;;;;;5027798;28;20044;-60
2022/08/04 05:40:50;;;;;;;14.35;4.90;;;;;;;;;;5034602;28;20029;-60
2022/08/04 05:43:17;;;;;;;7.88;4.28;;;;;;;;;;5034869;28;20135;-60
2022/08/04 05:45:47;;;;;;;11.40;4.88;;;;;;;;;;5035158;28;20052;-60
2022/08/04 05:48:14;;;;;;;11.38;4.97;;;;;;;;;;5034166;28;20181;-60
2022/08/04 05:50:40;;;;;;;8.23;4.50;;;;;;;;;;5032825;28;20037;-60
2022/08/04 05:53:08;;;;;;;8.68;4.65;;;;;;;;;;5034449;28;20037;-60
2022/08/04 05:55:34;;;;;;;11.07;4.63;;;;;;;;;;5032930;28;20041;-60
2022/08/04 05:58:01;;;;;;;7.72;4.43;;;;;;;;;;5033967;28;20079;-60
2022/08/04 06:00:28;;;;;;;10.75;4.18;;;;;;;;;;5032317;28;20037;-60
2022/08/04 06:02:56;;;;;;;8.55;4.65;;;;;;;;;;5033496;28;20446;-60
2022/08/04 06:05:23;;;;;;;10.32;4.78;;;;;;;;;;5030794;28;20048;-60
2022/08/04 06:07:50;;;;;;;10.38;4.75;;;;;;;;;;5033517;28;20047;-60
2022/08/04 06:10:16;;;;;;;7.43;4.30;;;;;;;;;;5036933;28;20075;-61
2022/08/04 06:12:53;;;;;;;10.07;4.50;;;;;;;;;;5031293;28;20068;-61
2022/08/04 06:15:21;;;;;;;8.57;4.07;;;;;;;;;;5031317;28;20036;-60
2022/08/04 06:17:56;;;;;;;9.52;4.40;;;;;;;;;;5032357;28;20044;-60
2022/08/04 06:20:26;;;;;;;9.80;4.53;;;;;;;;;;5031349;28;20033;-60
2022/08/04 06:22:55;;;;;;;8.77;4.72;;;;;;;;;;5031811;28;20072;-60
2022/08/04 06:25:23;;;;;;;9.43;4.40;;;;;;;;;;5030154;28;20107;-60
2022/08/04 06:27:50;;;;;;;9.18;4.20;;;;;;;;;;5032329;28;20051;-58
2022/08/04 06:30:18;;;;;;;14.00;4.90;;;;;;;;;;5033889;28;20064;-60
2022/08/04 06:32:46;;;;;;;10.68;4.90;;;;;;;;;;5031971;28;20494;-61
2022/08/04 06:35:14;;;;;;;7.53;4.40;;;;;;;;;;5021998;28;20748;-61
2022/08/04 06:37:41;;;;;;;8.77;4.55;;;;;;;;;;5030978;28;20045;-61
2022/08/04 06:40:09;;;;;;;8.20;4.22;;;;;;;;;;5032415;28;20065;-61
2022/08/04 06:42:37;;;;;;;10.35;4.45;;;;;;;;;;5031171;28;20029;-61
2022/08/04 06:45:05;;;;;;;6.45;3.83;;;;;;;;;;5031609;28;20614;-60
2022/08/04 06:47:32;;;;;;;8.32;4.57;;;;;;;;;;5014239;28;21715;-60
2022/08/04 06:50:00;;;;;;;8.90;4.38;;;;;;;;;;5019469;28;20041;-61
2022/08/04 06:52:26;;;;;;;7.07;4.00;;;;;;;;;;5031903;28;20052;-60
2022/08/04 06:54:54;;;;;;;7.68;4.00;;;;;;;;;;5029937;28;20712;-60
2022/08/04 06:57:22;;;;;;;7.88;4.55;;;;;;;;;;5031683;28;20048;-60
2022/08/04 06:59:53;;;;;;;9.93;4.53;;;;;;;;;;5032290;28;20402;-60
2022/08/04 07:02:22;;;;;;;8.02;4.18;;;;;;;;;;5030573;28;20029;-60
2022/08/04 07:04:49;;;;;;;7.13;4.00;;;;;;;;;;5028926;28;20095;-60
2022/08/04 07:07:17;;;;;;;6.40;4.22;;;;;;;;;;5031445;28;20376;-60
2022/08/04 07:09:44;;;;;;;7.45;4.20;;;;;;;;;;5031185;28;20079;-61
2022/08/04 07:12:10;;;;;;;10.65;4.75;;;;;;;;;;5031230;28;20444;-60
2022/08/04 07:14:38;;;;;;;8.05;4.43;;;;;;;;;;5030253;28;20041;-60
2022/08/04 07:17:06;;;;;;;7.05;4.32;;;;;;;;;;5029786;28;20120;-59
2022/08/04 07:19:33;;;;;;;7.25;4.30;;;;;;;;;;5029419;28;20056;-59
2022/08/04 07:22:01;;;;;;;8.27;4.38;;;;;;;;;;5030734;28;20041;-59
2022/08/04 07:24:31;;;;;;;10.93;4.35;;;;;;;;;;5028791;28;20086;-59
2022/08/04 07:26:58;;;;;;;9.85;4.93;;;;;;;;;;5030211;28;20048;-58
2022/08/04 07:29:24;;;;;;;9.38;4.82;;;;;;;;;;5029977;28;20040;-59
2022/08/04 07:31:51;;;;;;;10.35;4.57;;;;;;;;;;5030459;28;20056;-59
2022/08/04 07:34:19;;;;;;;10.00;5.32;;;;;;;;;;5028968;28;20049;-58
2022/08/04 07:36:46;;;;;;;10.35;5.22;;;;;;;;;;5029355;28;20047;-59
2022/08/04 07:39:13;;;;;;;10.63;4.85;;;;;;;;;;5030008;28;20056;-60
2022/08/04 07:41:41;;;;;;;8.88;4.72;;;;;;;;;;5029590;28;20139;-60
2022/08/04 07:44:08;;;;;;;12.98;4.80;;;;;;;;;;5029942;28;20041;-60
2022/08/04 07:46:38;;;;;;;11.07;4.80;;;;;;;;;;5030475;28;20055;-61
2022/08/04 07:49:05;;;;;;;8.65;4.43;;;;;;;;;;5030626;28;20414;-60
2022/08/04 07:51:34;;;;;;;8.50;4.82;;;;;;;;;;5029899;28;20037;-60
2022/08/04 07:54:04;;;;;;;8.68;4.78;;;;;;;;;;5029119;28;20123;-61
2022/08/04 07:56:31;;;;;;;11.00;4.75;;;;;;;;;;5029377;28;20045;-60
2022/08/04 07:58:59;;;;;;;10.13;4.80;;;;;;;;;;5030029;28;20048;-60
2022/08/04 08:01:26;;;;;;;9.60;5.00;;;;;;;;;;5013369;28;20037;-60
2022/08/04 08:03:53;;;;;;;14.25;4.97;;;;;;;;;;5015812;28;20161;-60
2022/08/04 08:06:20;;;;;;;11.52;5.38;;;;;;;;;;5028881;28;20045;-60
2022/08/04 08:08:47;;;;;;;11.50;4.85;;;;;;;;;;5017151;28;20933;-59
2022/08/04 08:11:14;;;;;;;11.13;4.85;;;;;;;;;;5029653;28;20040;-58
2022/08/04 08:13:40;;;;;;;8.90;4.90;;;;;;;;;;5028560;28;20921;-59
2022/08/04 08:16:07;;;;;;;9.68;5.20;;;;;;;;;;5030074;28;20124;-61
2022/08/04 08:18:34;;;;;;;8.63;4.93;;;;;;;;;;5028340;28;21170;-59
2022/08/04 08:21:00;;;;;;;9.68;5.13;;;;;;;;;;5030638;28;20044;-58
2022/08/04 08:23:30;;;;;;;9.65;4.75;;;;;;;;;;5028523;28;20051;-57
2022/08/04 08:25:57;;;;;;;9.88;4.88;;;;;;;;;;5029064;28;20045;-58
2022/08/04 08:28:24;;;;;;;8.45;4.85;;;;;;;;;;5028224;28;20095;-59
2022/08/04 08:30:50;;;;;;;9.63;4.68;;;;;;;;;;5029107;28;20856;-59
2022/08/04 08:33:17;;;;;;;10.75;5.13;;;;;;;;;;5028426;28;20435;-59
2022/08/04 08:36:00;;;;;;;8.00;4.75;;;;;;;;;;5028652;28;20089;-59
2022/08/04 08:38:33;;;;;;;9.60;4.72;;;;;;;;;;5028255;28;20098;-59
2022/08/04 08:41:18;;;;;;;9.45;5.05;;;;;;;;;;5030661;28;20037;-59
2022/08/04 08:43:56;;;;;;;10.73;5.00;;;;;;;;;;5048971;28;20044;-59
2022/08/04 08:46:42;;;;;;;10.00;4.75;;;;;;;;;;5049243;28;20069;-58
2022/08/04 08:49:22;;;;;;;10.13;4.90;;;;;;;;;;5047281;28;20064;-59
2022/08/04 08:52:07;;;;;;;12.85;5.03;;;;;;;;;;5048937;28;20565;-59
2022/08/04 08:54:52;;;;;;;10.00;4.78;;;;;;;;;;5046829;28;20087;-59
2022/08/04 08:57:34;;;;;;;15.00;4.82;;;;;;;;;;5048240;28;20052;-59
2022/08/04 09:00:09;;;;;;;9.70;5.35;;;;;;;;;;5048043;28;20545;-59
2022/08/04 09:02:54;;;;;;;11.68;5.32;;;;;;;;;;5035630;28;20163;-59
2022/08/04 09:05:29;;;;;;;9.30;5.07;;;;;;;;;;5047566;28;20421;-59
2022/08/04 09:08:02;;;;;;;9.05;4.97;;;;;;;;;;5048889;28;20151;-58
2022/08/04 09:10:36;;;;;;;10.13;4.68;;;;;;;;;;5047469;28;20221;-60
2022/08/04 09:13:04;;;;;;;10.32;5.38;;;;;;;;;;5036386;28;20098;-58
2022/08/04 09:15:42;;;;;;;8.60;4.95;;;;;;;;;;5047681;28;20082;-59
2022/08/04 09:18:26;;;;;;;9.80;5.13;;;;;;;;;;5050241;28;20412;-58
2022/08/04 09:21:00;;;;;;;8.75;4.80;;;;;;;;;;5048278;28;20045;-58
2022/08/04 09:23:56;;;;;;;9.77;5.32;;;;;;;;;;5048422;28;20041;-59
2022/08/04 09:26:52;;;;;;;15.82;5.35;;;;;;;;;;5029712;28;20708;-58
2022/08/04 09:29:30;;;;;;;9.18;5.63;;;;;;;;;;5033072;28;20028;-59
2022/08/04 09:32:12;;;;;;;11.00;5.70;;;;;;;;;;5048269;28;20064;-59
2022/08/04 09:34:38;;;;;;;16.30;6.30;;;;;;;;;;5047807;28;20040;-58
2022/08/04 09:37:12;;;;;;;8.32;5.18;;;;;;;;;;5049710;28;20127;-57
2022/08/04 09:39:45;;;;;;;10.77;5.70;;;;;;;;;;5047087;28;20487;-58
2022/08/04 09:42:18;;;;;;;12.48;5.00;;;;;;;;;;5049355;28;20478;-59
2022/08/04 09:45:03;;;;;;;7.75;4.75;;;;;;;;;;5047681;28;20037;-59
2022/08/04 09:47:35;;;;;;;9.00;5.45;;;;;;;;;;5035708;28;20165;-58
2022/08/04 09:50:08;;;;;;;9.30;5.60;;;;;;;;;;5050821;28;20041;-59
2022/08/04 09:53:07;;;;;;;10.63;5.07;;;;;;;;;;5048355;28;20270;-58
2022/08/04 09:55:50;;;;;;;11.70;5.57;;;;;;;;;;5025494;28;21082;-59
2022/08/04 09:58:36;;;;;;;9.63;5.68;;;;;;;;;;5048583;28;20052;-59
2022/08/04 10:01:06;;;;;;;10.63;5.15;;;;;;;;;;5052304;28;20043;-59
2022/08/04 10:03:34;;;;;;;10.40;5.63;;;;;;;;;;5051835;28;20663;-60
2022/08/04 10:06:01;;;;;;;9.98;5.32;;;;;;;;;;5051500;28;20094;-58
2022/08/04 10:08:46;;;;;;;11.32;5.63;;;;;;;;;;5049055;28;20044;-59
2022/08/04 10:11:16;;;;;;;9.00;5.68;;;;;;;;;;5051945;28;20052;-59
2022/08/04 10:13:57;;;;;;;10.35;5.70;;;;;;;;;;5051002;28;20044;-59
2022/08/04 10:16:30;;;;;;;10.43;5.28;;;;;;;;;;5052302;28;20613;-59
2022/08/04 10:19:15;;;;;;;8.50;5.22;;;;;;;;;;5050981;28;20076;-58
2022/08/04 10:22:01;;;;;;;10.85;5.72;;;;;;;;;;5051399;28;20231;-58
2022/08/04 10:24:53;;;;;;;11.55;5.72;;;;;;;;;;5051203;28;20052;-59
2022/08/04 10:27:30;;;;;;;10.60;5.72;;;;;;;;;;5050447;28;20496;-60
2022/08/04 10:30:10;;;;;;;12.65;6.38;;;;;;;;;;5053080;28;20033;-60
2022/08/04 10:32:53;;;;;;;11.23;5.97;;;;;;;;;;5052086;28;20060;-60
2022/08/04 10:35:22;;;;;;;11.75;6.00;;;;;;;;;;5053131;28;20047;-60
2022/08/04 10:37:56;;;;;;;11.18;5.53;;;;;;;;;;5052811;28;20059;-59
2022/08/04 10:40:44;;;;;;;12.55;6.47;;;;;;;;;;5040599;28;20060;-60
2022/08/04 10:43:28;;;;;;;10.32;5.97;;;;;;;;;;5052682;28;20120;-60
2022/08/04 10:45:59;;;;;;;9.95;5.80;;;;;;;;;;5050564;28;20124;-60
2022/08/04 10:48:44;;;;;;;10.98;6.10;;;;;;;;;;5050010;28;20036;-59
2022/08/04 10:51:29;;;;;;;10.05;6.45;;;;;;;;;;5051853;28;20059;-60
2022/08/04 10:53:58;;;;;;;10.50;6.30;;;;;;;;;;5050462;28;20068;-60
2022/08/04 10:56:31;;;;;;;11.35;6.28;;;;;;;;;;5050076;28;20037;-59
2022/08/04 10:58:57;;;;;;;;;;;;;;;;;;5052015;28;20045;-60
2022/08/04 11:01:36;;;;;;;9.30;6.03;;;;;;;;;;5050520;28;19975;-60
2022/08/04 11:04:09;;;;;;;12.73;6.53;;;;;;;;;;5051198;28;20048;-60
2022/08/04 11:06:37;;;;;;;12.45;6.70;;;;;;;;;;5049333;28;20066;-60
2022/08/04 11:09:05;;;;;;;10.63;6.65;;;;;;;;;;5050965;28;20048;-60
2022/08/04 11:11:35;;;;;;;10.95;7.18;;;;;;;;;;5049058;28;20919;-59
2022/08/04 11:14:08;;;;;;;14.75;6.30;;;;;;;;;;5050537;28;20036;-60
2022/08/04 11:16:48;;;;;;;12.98;6.75;;;;;;;;;;5049670;28;20060;-60
2022/08/04 11:19:18;;;;;;;14.73;6.60;;;;;;;;;;5037296;28;20059;-60
2022/08/04 11:21:55;;;;;;;11.80;6.80;;;;;;;;;;5050094;28;20036;-60
2022/08/04 11:24:25;;;;;;;11.25;6.45;;;;;;;;;;5050374;28;20052;-60
2022/08/04 11:27:03;;;;;;;10.82;6.72;;;;;;;;;;5049741;28;20033;-60
2022/08/04 11:29:36;;;;;;;13.55;6.55;;;;;;;;;;5050212;28;20501;-60
2022/08/04 11:32:05;;;;;;;13.82;7.28;;;;;;;;;;5050690;28;20032;-60
2022/08/04 11:34:35;;;;;;;11.32;6.95;;;;;;;;;;5050270;28;20609;-60
2022/08/04 11:37:10;;;;;;;14.85;6.80;;;;;;;;;;5049973;28;20679;-60
2022/08/04 11:39:43;;;;;;;10.88;6.63;;;;;;;;;;5049803;28;20075;-60
2022/08/04 11:42:13;;;;;;;11.77;6.88;;;;;;;;;;5048962;28;20041;-60
2022/08/04 11:44:48;;;;;;;13.63;6.90;;;;;;;;;;5050127;28;20507;-60
2022/08/04 11:47:20;;;;;;;12.20;6.85;;;;;;;;;;5049890;28;20126;-59
2022/08/04 11:49:49;;;;;;;18.50;7.18;;;;;;;;;;5050625;28;20045;-60
2022/08/04 11:52:17;;;;;;;11.30;7.15;;;;;;;;;;5051983;28;20044;-60
2022/08/04 11:54:44;;;;;;;10.25;6.47;;;;;;;;;;5049925;28;20105;-60
2022/08/04 11:57:11;;;;;;;11.35;6.38;;;;;;;;;;5050729;28;20747;-60
2022/08/04 11:59:38;;;;;;;10.85;5.90;;;;;;;;;;5049134;28;20037;-60
2022/08/04 12:02:10;;;;;;;19.67;7.18;;;;;;;;;;5050533;28;20116;-60
2022/08/04 12:04:37;;;;;;;13.57;7.00;;;;;;;;;;5050299;28;20044;-59
2022/08/04 12:07:22;;;;;;;12.40;6.70;;;;;;;;;;5049279;28;20036;-59
2022/08/04 12:10:07;;;;;;;13.05;7.18;;;;;;;;;;5050507;28;20045;-59
2022/08/04 12:12:43;;;;;;;16.05;7.18;;;;;;;;;;5049332;28;20076;-60
2022/08/04 12:15:23;;;;;;;10.25;6.22;;;;;;;;;;5049528;28;20079;-59
2022/08/04 12:17:57;;;;;;;11.88;7.20;;;;;;;;;;5048712;28;20072;-61
2022/08/04 12:20:24;;;;;;;11.30;6.75;;;;;;;;;;5049429;28;20037;-60
2022/08/04 12:22:52;;;;;;;12.77;7.28;;;;;;;;;;5037554;28;20580;-60
2022/08/04 12:25:24;;;;;;;13.98;7.28;;;;;;;;;;5049233;28;20060;-58
2022/08/04 12:27:57;;;;;;;15.33;8.10;;;;;;;;;;5050571;28;20059;-61
2022/08/04 12:30:24;;;;;;;;;;;;;;;;;;5049793;28;20771;-59
2022/08/04 12:32:53;;;;;;;15.85;8.27;;;;;;;;;;5049040;28;19925;-60
2022/08/04 12:35:33;;;;;;;20.98;9.38;;;;;;;;;;5047077;28;20552;-59
2022/08/04 12:38:03;;;;;;;15.10;8.02;;;;;;;;;;5036242;28;20041;-59
2022/08/04 12:40:33;;;;;;;14.40;8.02;;;;;;;;;;5048981;28;20550;-59
2022/08/04 12:43:08;;;;;;;14.73;8.27;;;;;;;;;;5048218;28;20601;-58
2022/08/04 12:45:35;;;;;;;13.40;8.52;;;;;;;;;;5035805;28;20044;-59
2022/08/04 12:48:04;;;;;;;16.00;8.75;;;;;;;;;;5049006;28;20064;-60
2022/08/04 12:50:31;;;;;;;14.73;8.40;;;;;;;;;;5050301;28;20051;-60
2022/08/04 12:52:58;;;;;;;17.48;10.02;;;;;;;;;;5050770;28;20558;-60
2022/08/04 12:55:29;;;;;;;15.48;9.48;;;;;;;;;;5048314;28;20056;-59
2022/08/04 12:57:57;;;;;;;17.35;9.73;;;;;;;;;;5034500;28;20041;-59
2022/08/04 13:00:24;;;;;;;18.73;10.23;;;;;;;;;;5046928;28;20511;-59
2022/08/04 13:02:51;;;;;;;20.70;10.50;;;;;;;;;;5047855;28;20060;-59
2022/08/04 13:05:19;;;;;;;16.98;9.90;;;;;;;;;;5050459;28;20055;-58
2022/08/04 13:07:50;;;;;;;16.75;9.93;;;;;;;;;;5047898;28;21804;-59
2022/08/04 13:10:17;;;;;;;18.35;10.60;;;;;;;;;;5050186;28;20036;-59
2022/08/04 13:12:51;;;;;;;18.45;10.32;;;;;;;;;;5048112;28;20628;-59
2022/08/04 13:15:20;;;;;;;14.15;8.85;;;;;;;;;;5050772;28;20037;-59
2022/08/04 13:17:52;;;;;;;14.70;9.07;;;;;;;;;;5047346;28;20507;-59
2022/08/04 13:20:30;;;;;;;15.65;8.82;;;;;;;;;;5049093;28;20133;-60
2022/08/04 13:23:08;;;;;;;14.13;8.05;;;;;;;;;;5049007;28;20045;-59
2022/08/04 13:25:39;;;;;;;11.60;7.28;;;;;;;;;;5047073;28;20509;-58
2022/08/04 13:28:05;;;;;;;15.85;8.95;;;;;;;;;;5048443;28;20399;-60
2022/08/04 13:30:33;;;;;;;22.35;9.95;;;;;;;;;;5048450;28;20060;-60
2022/08/04 13:33:02;;;;;;;26.80;9.75;;;;;;;;;;5049029;28;20407;-58
2022/08/04 13:35:29;;;;;;;21.60;9.55;;;;;;;;;;5051894;28;20511;-59
2022/08/04 13:37:56;;;;;;;17.38;7.93;;;;;;;;;;5053080;28;20041;-58
2022/08/04 13:40:24;;;;;;;20.52;8.50;;;;;;;;;;5051749;28;20036;-59
2022/08/04 13:42:51;;;;;;;22.25;8.05;;;;;;;;;;5052467;28;20616;-59
2022/08/04 13:45:25;;;;;;;15.75;8.43;;;;;;;;;;5052619;28;20036;-60
2022/08/04 13:47:57;;;;;;;18.00;8.38;;;;;;;;;;5052468;28;20467;-60
2022/08/04 13:50:26;;;;;;;14.93;8.40;;;;;;;;;;5051596;28;20052;-59
2022/08/04 13:52:54;;;;;;;16.00;8.05;;;;;;;;;;5051524;28;20083;-60
2022/08/04 13:55:31;;;;;;;16.50;8.40;;;;;;;;;;5051547;28;20041;-59
2022/08/04 13:57:59;;;;;;;17.95;8.55;;;;;;;;;;5049741;28;20057;-60
2022/08/04 14:00:36;;;;;;;20.33;9.25;;;;;;;;;;5051536;28;20043;-59
2022/08/04 14:03:03;;;;;;;14.20;6.65;;;;;;;;;;5052810;28;20639;-60
2022/08/04 14:05:31;;;;;;;23.42;9.60;;;;;;;;;;5050574;28;20040;-60
2022/08/04 14:08:06;;;;;;;19.77;10.05;;;;;;;;;;5051723;28;20048;-60
2022/08/04 14:10:34;;;;;;;23.55;11.15;;;;;;;;;;5052315;28;20070;-59
2022/08/04 14:13:03;;;;;;;28.88;14.25;;;;;;;;;;5052580;28;20172;-60
2022/08/04 14:15:40;;;;;;;32.78;13.95;;;;;;;;;;5052699;28;20040;-60
2022/08/04 14:18:22;;;;;;;30.17;13.70;;;;;;;;;;5053260;28;20074;-60
2022/08/04 14:21:09;;;;;;;22.45;12.65;;;;;;;;;;5051932;28;20044;-60
2022/08/04 14:23:39;;;;;;;26.38;13.65;;;;;;;;;;5053415;28;20098;-59
2022/08/04 14:26:14;;;;;;;30.30;15.02;;;;;;;;;;5051579;28;20033;-58
2022/08/04 14:28:40;;;;;;;30.67;13.57;;;;;;;;;;5051454;28;20059;-59
2022/08/04 14:31:17;;;;;;;25.80;12.23;;;;;;;;;;5052566;28;20079;-60
2022/08/04 14:33:44;;;;;;;26.35;14.55;;;;;;;;;;5051516;28;20064;-59
2022/08/04 14:36:12;;;;;;;19.95;10.77;;;;;;;;;;5050921;28;20041;-59
2022/08/04 14:38:43;;;;;;;21.15;12.10;;;;;;;;;;5051571;28;20049;-59
2022/08/04 14:41:10;;;;;;;14.70;8.38;;;;;;;;;;5052563;28;20749;-60
2022/08/04 14:43:44;;;;;;;17.15;8.02;;;;;;;;;;5052128;28;20119;-60
2022/08/04 14:46:11;;;;;;;19.38;8.70;;;;;;;;;;5051273;28;20050;-59
2022/08/04 14:48:38;;;;;;;17.63;9.95;;;;;;;;;;5052005;28;21625;-60
2022/08/04 14:51:13;;;;;;;19.20;9.63;;;;;;;;;;5057050;28;20048;-60
2022/08/04 14:53:40;;;;;;;17.27;10.05;;;;;;;;;;5056081;28;20045;-60
2022/08/04 14:56:06;;;;;;;17.92;10.63;;;;;;;;;;5050677;28;20045;-60
2022/08/04 14:58:34;;;;;;;18.85;11.43;;;;;;;;;;5051347;28;20525;-60
2022/08/04 15:01:02;;;;;;;20.10;11.02;;;;;;;;;;5051226;28;20488;-60
2022/08/04 15:03:30;;;;;;;13.88;8.27;;;;;;;;;;5050149;28;20038;-60
2022/08/04 15:05:57;;;;;;;17.63;10.82;;;;;;;;;;5050789;28;20043;-60
2022/08/04 15:08:24;;;;;;;17.00;10.05;;;;;;;;;;5037929;28;20195;-60
2022/08/04 15:10:57;;;;;;;14.45;7.97;;;;;;;;;;5051449;28;20036;-60
2022/08/04 15:13:24;;;;;;;17.98;9.65;;;;;;;;;;5050475;28;20098;-60